Time;durP1;ratioP1;P1;durP2;ratioP2;P2;SDS_P1;SDS_P2;PMS_P1;PMS_P2;Temp;Humidity;BMP_temperature;BMP_pressure;BME280_temperature;BME280_humidity;BME280_pressure;Samples;Min_cycle;Max_cycle;Signal;HPM_P1;HPM_P2
2021/01/30 00:00:43;;;;;;;1.05;0.50;;;;;;;5.05;78.22;94306.09;4960019;28;20109;-40
2021/01/30 00:03:12;;;;;;;1.70;0.47;;;;;;;5.04;78.43;94296.50;4974345;28;20089;-46
2021/01/30 00:05:40;;;;;;;1.65;0.90;;;;;;;5.09;79.00;94296.25;4971924;28;20054;-47
2021/01/30 00:08:11;;;;;;;1.92;0.80;;;;;;;5.03;79.24;94297.59;4968303;28;20061;-48
2021/01/30 00:10:37;;;;;;;2.03;0.73;;;;;;;4.94;79.94;94289.69;4955374;28;20134;-46
2021/01/30 00:13:05;;;;;;;3.15;0.85;;;;;;;4.97;80.00;94291.66;4960073;28;20144;-43
2021/01/30 00:15:32;;;;;;;1.05;0.68;;;;;;;5.00;80.54;94320.47;4971326;28;20055;-44
2021/01/30 00:18:00;;;;;;;1.45;0.68;;;;;;;4.96;80.95;94294.69;4963668;28;20063;-40
2021/01/30 00:20:32;;;;;;;1.20;0.52;;;;;;;4.93;80.88;94288.88;4963143;28;20137;-39
2021/01/30 00:23:00;;;;;;;4.05;0.82;;;;;;;5.07;80.83;94293.13;4974453;28;20134;-42
2021/01/30 00:25:33;;;;;;;1.15;0.63;;;;;;;5.03;81.14;94298.38;4973114;28;20069;-44
2021/01/30 00:28:00;;;;;;;2.67;1.17;;;;;;;4.90;81.78;94302.94;4969324;28;20047;-41
2021/01/30 00:30:31;;;;;;;5.15;2.03;;;;;;;4.85;82.46;94302.41;4956818;28;20513;-41
2021/01/30 00:32:58;;;;;;;2.53;0.95;;;;;;;4.96;82.43;94311.56;4966851;28;20078;-45
2021/01/30 00:35:27;;;;;;;2.30;0.90;;;;;;;5.02;81.22;94306.75;4956589;28;20134;-44
2021/01/30 00:37:54;;;;;;;3.65;1.38;;;;;;;5.06;81.27;94300.38;4955111;28;20077;-48
2021/01/30 00:40:21;;;;;;;4.15;1.67;;;;;;;4.97;81.33;94290.91;4958193;28;20549;-45
2021/01/30 00:42:49;;;;;;;2.40;1.00;;;;;;;5.01;81.83;94300.63;4964154;28;20133;-43
2021/01/30 00:45:19;;;;;;;2.47;0.90;;;;;;;5.06;81.56;94313.00;4959940;28;20057;-43
2021/01/30 00:47:46;;;;;;;2.90;1.00;;;;;;;4.97;82.30;94317.69;4962202;28;20043;-41
2021/01/30 00:50:13;;;;;;;1.60;0.80;;;;;;;4.98;82.11;94317.38;4964176;28;20047;-41
2021/01/30 00:52:42;;;;;;;1.70;1.05;;;;;;;4.83;82.76;94318.81;4962990;28;20061;-41
2021/01/30 00:55:21;;;;;;;3.20;1.10;;;;;;;4.92;83.04;94318.72;4973759;28;20441;-45
2021/01/30 00:57:51;;;;;;;1.00;0.70;;;;;;;4.83;83.33;94315.34;4952257;28;20358;-47
2021/01/30 01:00:24;;;;;;;2.30;0.80;;;;;;;5.01;82.72;94313.25;4954380;28;20047;-47
2021/01/30 01:02:55;;;;;;;1.50;0.80;;;;;;;5.00;82.49;94317.03;4953295;28;20055;-48
2021/01/30 01:05:27;;;;;;;3.03;0.80;;;;;;;5.06;82.49;94326.41;4960052;28;20058;-48
2021/01/30 01:07:54;;;;;;;1.92;0.70;;;;;;;5.02;82.82;94322.84;4956960;28;20055;-44
2021/01/30 01:10:22;;;;;;;2.20;0.80;;;;;;;4.88;83.61;94340.03;4961725;28;20086;-50
2021/01/30 01:12:49;;;;;;;1.90;0.75;;;;;;;4.99;83.25;94344.94;4972555;28;20050;-50
2021/01/30 01:15:17;;;;;;;1.83;0.73;;;;;;;4.88;83.44;94337.38;4967829;28;20075;-47
2021/01/30 01:17:44;;;;;;;1.23;0.65;;;;;;;4.90;83.88;94353.88;4959333;28;20047;-45
2021/01/30 01:20:15;;;;;;;3.30;0.77;;;;;;;4.86;84.16;94342.25;4967436;28;20413;-48
2021/01/30 01:22:41;;;;;;;2.85;0.70;;;;;;;4.84;83.90;94344.50;4965587;28;20483;-51
2021/01/30 01:25:08;;;;;;;1.02;0.70;;;;;;;4.92;83.06;94343.59;4972658;28;20394;-47
2021/01/30 01:27:35;;;;;;;1.50;0.88;;;;;;;4.99;82.70;94344.94;4966823;28;20523;-47
2021/01/30 01:30:01;;;;;;;1.85;0.80;;;;;;;5.09;82.12;94347.19;4953624;28;20122;-46
2021/01/30 01:32:28;;;;;;;1.35;0.93;;;;;;;5.14;82.07;94357.69;4963060;28;20416;-47
2021/01/30 01:34:54;;;;;;;1.85;0.70;;;;;;;5.20;81.31;94355.53;4972712;28;20139;-48
2021/01/30 01:37:20;;;;;;;1.27;0.63;;;;;;;5.16;80.83;94356.22;4965264;28;20043;-43
2021/01/30 01:39:47;;;;;;;2.75;0.68;;;;;;;5.23;79.92;94346.84;4972899;28;20134;-45
2021/01/30 01:42:21;;;;;;;2.92;1.05;;;;;;;5.27;79.45;94358.47;4972328;28;20140;-47
2021/01/30 01:44:48;;;;;;;2.92;0.70;;;;;;;5.31;79.51;94357.44;4967118;28;20134;-45
2021/01/30 01:47:22;;;;;;;6.00;1.58;;;;;;;5.43;78.81;94358.53;4962695;28;20078;-45
2021/01/30 01:49:50;;;;;;;1.55;0.80;;;;;;;5.31;78.64;94356.66;4965980;28;20043;-46
2021/01/30 01:52:38;;;;;;;2.13;0.57;;;;;;;5.32;78.40;94367.03;4962402;28;20137;-45
2021/01/30 01:55:10;;;;;;;2.42;0.60;;;;;;;5.42;78.40;94373.06;4969869;28;20143;-48
2021/01/30 01:57:43;;;;;;;2.47;0.60;;;;;;;5.38;78.45;94371.06;4972513;28;20445;-48
2021/01/30 02:00:10;;;;;;;0.80;0.60;;;;;;;5.44;78.43;94384.25;4963206;28;20505;-45
2021/01/30 02:02:37;;;;;;;1.15;0.60;;;;;;;5.28;78.76;94368.84;4971739;28;20055;-46
2021/01/30 02:05:12;;;;;;;0.55;0.50;;;;;;;5.20;79.46;94364.41;4970917;28;20065;-47
2021/01/30 02:07:41;;;;;;;0.85;0.50;;;;;;;5.17;79.22;94370.44;4960464;28;20054;-49
2021/01/30 02:10:21;;;;;;;1.67;0.80;;;;;;;5.25;79.51;94380.25;4965606;28;20132;-48
2021/01/30 02:12:50;;;;;;;0.88;0.60;;;;;;;5.22;78.72;94396.22;4971785;28;20059;-46
2021/01/30 02:15:19;;;;;;;0.93;0.50;;;;;;;5.25;78.57;94379.47;4957307;28;20051;-49
2021/01/30 02:18:18;;;;;;;3.10;0.60;;;;;;;5.23;78.72;94385.19;4959105;28;20215;-47
2021/01/30 02:21:23;;;;;;;1.35;0.70;;;;;;;5.06;79.94;94394.19;4956816;28;20059;-48
2021/01/30 02:24:27;;;;;;;;;;;;;;;4.91;80.84;94387.63;4965730;28;20081;-51
2021/01/30 02:27:07;;;;;;;1.30;0.70;;;;;;;4.95;80.88;94373.53;4948143;29;20056;-44
2021/01/30 02:29:48;;;;;;;1.08;0.60;;;;;;;4.87;81.27;94391.28;4931355;29;20118;-47
2021/01/30 02:32:39;;;;;;;1.02;0.60;;;;;;;4.93;81.24;94385.38;4962776;28;20531;-46
2021/01/30 02:35:24;;;;;;;2.95;0.70;;;;;;;4.90;81.11;94396.75;4954491;28;20094;-48
2021/01/30 02:38:00;;;;;;;2.22;0.60;;;;;;;4.98;79.93;94392.41;4970909;28;20046;-47
2021/01/30 02:40:33;;;;;;;2.22;0.70;;;;;;;5.12;79.61;94392.09;4971525;28;20055;-46
2021/01/30 02:43:07;;;;;;;0.93;0.70;;;;;;;5.04;79.07;94396.44;4960662;28;20134;-50
2021/01/30 02:45:37;;;;;;;0.95;0.60;;;;;;;5.00;79.20;94390.16;4962690;28;20137;-47
2021/01/30 02:48:11;;;;;;;1.60;0.40;;;;;;;5.06;78.20;94404.16;4971634;28;20260;-47
2021/01/30 02:50:45;;;;;;;0.68;0.45;;;;;;;5.03;78.56;94391.41;4970448;28;20086;-45
2021/01/30 02:53:34;;;;;;;0.88;0.65;;;;;;;5.03;77.94;94400.22;4971306;28;20062;-49
2021/01/30 02:56:03;;;;;;;2.78;0.52;;;;;;;5.06;76.99;94388.84;4971875;28;20125;-47
2021/01/30 02:58:35;;;;;;;0.98;0.50;;;;;;;5.12;77.08;94386.72;4959390;28;20067;-46
2021/01/30 03:01:04;;;;;;;1.50;0.60;;;;;;;5.09;77.21;94395.44;4952824;28;20498;-46
2021/01/30 03:03:31;;;;;;;0.43;0.30;;;;;;;5.14;77.12;94392.53;4964592;28;20058;-46
2021/01/30 03:06:13;;;;;;;2.05;0.50;;;;;;;5.14;76.94;94406.72;4970794;28;20131;-47
2021/01/30 03:08:59;;;;;;;0.85;0.38;;;;;;;5.14;77.59;94405.94;4966675;28;20054;-46
2021/01/30 03:11:34;;;;;;;0.73;0.30;;;;;;;5.01;78.26;94396.34;4971282;28;20059;-50
2021/01/30 03:14:08;;;;;;;0.82;0.40;;;;;;;5.03;77.95;94400.22;4971070;28;20142;-46
2021/01/30 03:16:39;;;;;;;2.13;0.40;;;;;;;4.96;78.00;94383.91;4960401;28;20126;-46
2021/01/30 03:19:11;;;;;;;0.43;0.30;;;;;;;5.00;78.16;94376.00;4956302;28;20648;-47
2021/01/30 03:21:41;;;;;;;1.52;0.50;;;;;;;5.00;78.39;94392.06;4952717;28;20070;-46
2021/01/30 03:24:07;;;;;;;1.33;0.50;;;;;;;5.05;78.77;94391.88;4969142;28;20583;-48
2021/01/30 03:26:40;;;;;;;1.90;0.50;;;;;;;5.16;77.77;94382.25;4971733;28;20050;-49
2021/01/30 03:29:08;;;;;;;1.30;0.60;;;;;;;5.02;78.13;94387.94;4959532;28;20071;-48
2021/01/30 03:31:34;;;;;;;1.23;0.40;;;;;;;5.00;78.05;94376.78;4963832;28;20097;-46
2021/01/30 03:34:01;;;;;;;0.90;0.70;;;;;;;5.06;78.17;94380.03;4971643;28;20074;-47
2021/01/30 03:36:27;;;;;;;0.60;0.40;;;;;;;5.10;77.78;94383.59;4953350;28;20102;-48
2021/01/30 03:38:54;;;;;;;1.42;0.50;;;;;;;5.15;77.51;94386.06;4955364;28;20100;-50
2021/01/30 03:41:20;;;;;;;0.85;0.40;;;;;;;4.99;77.88;94385.94;4952213;28;20476;-48
2021/01/30 03:43:47;;;;;;;1.80;0.80;;;;;;;5.16;77.14;94387.63;4954430;28;20138;-49
2021/01/30 03:46:13;;;;;;;1.30;0.55;;;;;;;5.00;77.63;94379.44;4952002;28;20045;-44
2021/01/30 03:48:40;;;;;;;2.42;0.70;;;;;;;5.01;77.96;94391.75;4967334;28;20059;-48
2021/01/30 03:51:06;;;;;;;0.82;0.50;;;;;;;5.10;77.40;94387.06;4957715;28;20051;-48
2021/01/30 03:53:32;;;;;;;1.77;0.60;;;;;;;5.18;77.17;94389.97;4969180;28;20113;-47
2021/01/30 03:55:59;;;;;;;2.05;0.68;;;;;;;5.07;77.67;94389.63;4974655;28;20488;-46
2021/01/30 03:58:26;;;;;;;0.82;0.50;;;;;;;5.04;77.48;94377.69;4963913;28;20521;-41
2021/01/30 04:00:52;;;;;;;2.35;0.60;;;;;;;5.06;77.39;94374.66;4955895;28;20110;-41
2021/01/30 04:03:19;;;;;;;1.05;0.52;;;;;;;5.01;77.43;94383.72;4967437;28;20477;-50
2021/01/30 04:05:45;;;;;;;1.52;0.68;;;;;;;5.03;77.61;94402.13;4973334;28;20743;-47
2021/01/30 04:08:11;;;;;;;2.67;1.02;;;;;;;5.13;77.06;94382.91;4963545;28;20050;-46
2021/01/30 04:10:38;;;;;;;3.35;0.80;;;;;;;5.18;76.88;94395.34;4967194;28;20150;-45
2021/01/30 04:13:08;;;;;;;4.00;0.65;;;;;;;5.18;77.00;94384.59;4974713;28;20133;-47
2021/01/30 04:15:39;;;;;;;1.38;0.60;;;;;;;5.11;77.07;94385.94;4961520;28;20509;-48
2021/01/30 04:18:06;;;;;;;2.88;0.70;;;;;;;5.20;76.94;94383.16;4967499;28;20058;-48
2021/01/30 04:20:33;;;;;;;1.75;0.70;;;;;;;5.13;77.06;94374.88;4973202;28;20051;-48
2021/01/30 04:23:01;;;;;;;3.90;0.77;;;;;;;5.09;77.48;94385.50;4973885;28;20425;-47
2021/01/30 04:25:28;;;;;;;2.08;0.60;;;;;;;4.97;77.55;94374.75;4973363;28;20130;-51
2021/01/30 04:27:55;;;;;;;3.53;0.90;;;;;;;5.01;76.94;94369.53;4973696;28;20604;-46
2021/01/30 04:30:25;;;;;;;3.30;0.80;;;;;;;5.08;76.63;94370.53;4966109;28;20118;-49
2021/01/30 04:32:53;;;;;;;3.08;0.77;;;;;;;5.12;76.45;94387.50;4973589;28;20062;-45
2021/01/30 04:35:23;;;;;;;2.72;0.55;;;;;;;5.02;76.57;94365.72;4974226;28;20133;-46
2021/01/30 04:37:50;;;;;;;1.98;0.70;;;;;;;5.03;77.14;94375.31;4964753;28;20129;-47
2021/01/30 04:40:24;;;;;;;1.70;0.50;;;;;;;5.01;75.87;94382.94;4963240;28;20568;-50
2021/01/30 04:43:01;;;;;;;1.80;0.80;;;;;;;5.14;75.52;94369.19;4973395;28;20055;-47
2021/01/30 04:45:33;;;;;;;1.48;0.60;;;;;;;5.08;74.94;94354.44;4970143;28;20161;-49
2021/01/30 04:48:42;;;;;;;3.67;0.70;;;;;;;5.15;75.02;94359.25;4965234;28;20050;-50
2021/01/30 04:51:40;;;;;;;4.63;0.75;;;;;;;5.06;75.28;94361.25;4953145;28;20051;-49
2021/01/30 04:54:34;;;;;;;3.38;0.90;;;;;;;5.00;74.87;94374.09;4972679;28;20121;-51
2021/01/30 04:57:00;;;;;;;;;;;;;;;5.12;74.38;94360.69;4954982;28;20078;-48
2021/01/30 04:59:53;;;;;;;3.25;0.80;;;;;;;5.12;74.13;94360.69;4954935;28;19922;-48
2021/01/30 05:02:32;;;;;;;2.58;1.00;;;;;;;5.00;74.28;94352.66;4953326;28;20564;-47
2021/01/30 05:04:59;;;;;;;3.03;0.98;;;;;;;4.92;74.65;94353.56;4953342;28;20055;-48
2021/01/30 05:07:32;;;;;;;7.22;0.98;;;;;;;4.96;74.04;94353.66;4959891;28;20042;-48
2021/01/30 05:10:04;;;;;;;5.97;2.28;;;;;;;4.88;73.96;94350.75;4968637;28;20141;-47
2021/01/30 05:12:57;;;;;;;3.13;0.73;;;;;;;4.96;73.91;94362.47;4959213;28;20051;-51
2021/01/30 05:15:36;;;;;;;3.38;0.70;;;;;;;4.93;73.99;94369.28;4971211;28;20471;-49
2021/01/30 05:18:34;;;;;;;2.55;1.00;;;;;;;5.00;73.36;94366.03;4967514;28;20130;-47
2021/01/30 05:21:19;;;;;;;3.22;0.73;;;;;;;4.86;73.96;94358.34;4956422;28;20086;-49
2021/01/30 05:23:50;;;;;;;4.25;1.10;;;;;;;4.99;73.68;94355.69;4972824;28;20070;-48
2021/01/30 05:26:27;;;;;;;2.97;0.90;;;;;;;4.99;73.69;94348.41;4981002;23;20063;-49
2021/01/30 05:29:10;;;;;;;4.90;0.85;;;;;;;4.94;74.86;94359.38;4950458;29;20059;-44
2021/01/30 05:31:54;;;;;;;3.83;0.90;;;;;;;4.96;75.75;94337.59;4939203;28;20055;-49
2021/01/30 05:34:28;;;;;;;2.90;0.85;;;;;;;4.76;76.28;94337.34;4953645;29;20055;-48
2021/01/30 05:37:14;;;;;;;2.10;0.80;;;;;;;4.81;75.98;94331.78;4948176;28;20118;-52
2021/01/30 05:39:52;;;;;;;4.63;1.15;;;;;;;4.81;75.89;94323.75;4935062;29;20052;-53
2021/01/30 05:42:42;;;;;;;4.60;1.10;;;;;;;4.88;76.07;94317.81;4952657;28;20051;-48
2021/01/30 05:45:37;;;;;;;3.67;0.82;;;;;;;4.75;76.53;94335.78;4953647;28;20055;-49
2021/01/30 05:48:14;;;;;;;2.95;1.23;;;;;;;4.78;76.37;94311.00;4948460;28;20051;-46
2021/01/30 05:50:52;;;;;;;6.05;1.05;;;;;;;4.74;77.04;94312.00;4943620;28;20058;-45
2021/01/30 05:53:22;;;;;;;4.57;1.00;;;;;;;4.76;76.57;94313.25;4954329;28;20055;-44
2021/01/30 05:55:48;;;;;;;4.93;1.80;;;;;;;4.72;76.52;94298.94;4952624;28;20050;-44
2021/01/30 05:58:20;;;;;;;5.35;0.90;;;;;;;4.80;76.10;94306.09;4953314;28;20047;-45
2021/01/30 06:00:47;;;;;;;5.20;1.20;;;;;;;4.81;75.95;94307.66;4950744;28;20142;-45
2021/01/30 06:03:22;;;;;;;3.67;0.88;;;;;;;4.90;76.03;94299.50;4953829;28;20059;-45
2021/01/30 06:05:51;;;;;;;7.28;0.95;;;;;;;4.80;76.06;94290.00;4952088;28;20051;-48
2021/01/30 06:08:23;;;;;;;7.70;1.10;;;;;;;4.97;75.34;94298.94;4940339;28;20058;-48
2021/01/30 06:11:13;;;;;;;2.05;1.38;;;;;;;4.91;75.54;94301.84;4944430;28;20077;-49
2021/01/30 06:13:53;;;;;;;5.90;0.98;;;;;;;4.85;75.64;94297.84;4952943;28;20437;-46
2021/01/30 06:16:49;;;;;;;5.72;0.73;;;;;;;4.94;75.62;94313.81;4951781;28;20059;-44
2021/01/30 06:19:22;;;;;;;4.90;0.90;;;;;;;4.93;75.76;94313.00;4949293;28;20130;-45
2021/01/30 06:22:07;;;;;;;4.65;1.45;;;;;;;4.96;75.88;94310.78;4934572;29;20055;-49
2021/01/30 06:24:35;;;;;;;3.50;0.77;;;;;;;4.87;75.87;94317.03;4939746;28;20134;-52
2021/01/30 06:27:07;;;;;;;3.13;0.80;;;;;;;4.90;75.89;94302.19;4953490;28;20043;-48
2021/01/30 06:29:49;;;;;;;4.63;0.70;;;;;;;4.95;75.34;94319.94;4965380;28;20043;-54
2021/01/30 06:32:18;;;;;;;5.93;1.00;;;;;;;4.95;76.22;94311.91;4952462;28;20082;-52
2021/01/30 06:34:48;;;;;;;4.30;1.00;;;;;;;5.04;75.03;94310.66;4952474;28;20047;-49
2021/01/30 06:37:30;;;;;;;4.65;1.13;;;;;;;5.01;74.70;94305.97;4952685;28;20127;-48
2021/01/30 06:40:07;;;;;;;4.53;0.95;;;;;;;4.99;74.90;94310.09;4944394;28;20085;-50
2021/01/30 06:42:35;;;;;;;5.72;0.90;;;;;;;4.85;74.93;94286.34;4952144;28;20047;-45
2021/01/30 06:45:08;;;;;;;4.82;1.17;;;;;;;5.00;75.09;94308.97;4951985;28;20058;-45
2021/01/30 06:47:48;;;;;;;6.05;0.90;;;;;;;4.96;75.52;94303.50;4949154;28;20619;-46
2021/01/30 06:50:38;;;;;;;7.20;2.05;;;;;;;4.97;75.05;94313.13;4936221;28;20107;-48
2021/01/30 06:53:19;;;;;;;5.15;1.42;;;;;;;4.99;74.72;94307.44;4942811;28;20051;-50
2021/01/30 06:55:46;;;;;;;4.38;1.00;;;;;;;4.97;74.94;94298.94;4965898;28;20043;-48
2021/01/30 06:58:25;;;;;;;3.13;0.90;;;;;;;5.16;74.64;94301.81;4951640;28;20468;-48
2021/01/30 07:01:05;;;;;;;5.53;1.02;;;;;;;5.15;74.03;94305.63;4936558;28;20461;-52
2021/01/30 07:03:46;;;;;;;6.00;1.27;;;;;;;5.07;74.29;94301.16;4953134;29;20055;-50
2021/01/30 07:06:23;;;;;;;4.90;1.42;;;;;;;5.12;73.86;94309.75;4952433;28;20411;-52
2021/01/30 07:09:15;;;;;;;8.95;1.63;;;;;;;5.23;73.34;94302.06;4941720;28;20067;-50
2021/01/30 07:11:53;;;;;;;6.50;1.80;;;;;;;5.26;73.51;94306.72;4937950;28;20073;-52
2021/01/30 07:14:43;;;;;;;3.38;1.20;;;;;;;5.21;73.31;94306.97;4953101;28;20055;-52
2021/01/30 07:17:17;;;;;;;2.83;1.10;;;;;;;5.17;73.88;94308.75;4947376;28;20059;-53
2021/01/30 07:20:05;;;;;;;4.68;1.08;;;;;;;5.23;73.16;94295.88;4947769;28;20130;-50
2021/01/30 07:22:47;;;;;;;4.47;0.90;;;;;;;5.21;73.70;94298.91;4943649;28;20063;-47
2021/01/30 07:25:22;;;;;;;4.15;1.20;;;;;;;5.32;72.76;94300.00;4953131;28;20047;-46
2021/01/30 07:28:05;;;;;;;8.40;1.52;;;;;;;5.32;72.69;94283.91;4954543;28;20051;-50
2021/01/30 07:30:45;;;;;;;5.85;1.25;;;;;;;5.26;72.77;94279.13;4970937;28;20051;-49
2021/01/30 07:33:20;;;;;;;6.70;1.80;;;;;;;5.35;73.21;94282.47;4956013;28;20059;-46
2021/01/30 07:36:19;;;;;;;6.47;1.30;;;;;;;5.51;72.03;94286.00;4955975;28;20464;-45
2021/01/30 07:39:00;;;;;;;3.83;1.10;;;;;;;5.37;71.90;94289.06;4940899;28;20465;-50
2021/01/30 07:41:41;;;;;;;6.22;1.80;;;;;;;5.32;71.92;94291.97;4951733;28;20086;-49
2021/01/30 07:44:17;;;;;;;5.32;1.30;;;;;;;5.45;71.40;94281.22;4956152;28;20480;-45
2021/01/30 07:46:59;;;;;;;6.00;1.40;;;;;;;5.37;71.65;94274.88;4971032;28;20047;-45
2021/01/30 07:49:29;;;;;;;6.60;1.43;;;;;;;5.38;71.48;94263.78;4944066;28;20059;-46
2021/01/30 07:52:05;;;;;;;7.50;1.65;;;;;;;5.41;71.53;94265.00;4950436;28;20420;-48
2021/01/30 07:54:32;;;;;;;9.10;1.20;;;;;;;5.47;71.49;94262.88;4955588;28;20133;-45
2021/01/30 07:57:23;;;;;;;7.43;1.35;;;;;;;5.44;70.88;94258.19;4955461;28;20075;-45
2021/01/30 07:59:56;;;;;;;8.88;2.25;;;;;;;5.41;71.57;94245.47;4955106;28;20428;-44
2021/01/30 08:02:58;;;;;;;6.55;1.33;;;;;;;5.29;71.57;94248.94;4954371;28;20055;-54
2021/01/30 08:05:34;;;;;;;5.13;1.20;;;;;;;5.34;71.47;94248.72;4948891;28;20398;-52
2021/01/30 08:08:07;;;;;;;6.20;1.30;;;;;;;5.29;71.89;94247.03;4949371;28;20039;-50
2021/01/30 08:11:01;;;;;;;5.72;1.27;;;;;;;5.33;71.82;94241.78;4951280;28;20139;-51
2021/01/30 08:13:31;;;;;;;;;;;;;;;5.32;71.56;94230.28;4954468;28;20083;-54
2021/01/30 08:16:16;;;;;;;4.18;1.20;;;;;;;5.37;71.57;94238.09;4951677;28;19961;-49
2021/01/30 08:18:45;;;;;;;5.18;1.10;;;;;;;5.33;71.43;94231.06;4954425;28;20167;-51
2021/01/30 08:21:30;;;;;;;3.90;1.25;;;;;;;5.33;71.08;94229.19;4951263;28;20051;-49
2021/01/30 08:24:10;;;;;;;3.78;0.90;;;;;;;5.46;70.95;94227.25;4939628;28;20051;-49
2021/01/30 08:26:54;;;;;;;6.10;1.20;;;;;;;5.72;70.84;94237.53;4941267;28;20162;-48
2021/01/30 08:29:26;;;;;;;7.50;1.20;;;;;;;5.45;71.07;94228.34;4954481;28;20059;-51
2021/01/30 08:32:00;;;;;;;6.70;1.10;;;;;;;5.34;71.03;94222.69;4954373;28;20643;-46
2021/01/30 08:34:31;;;;;;;4.55;1.25;;;;;;;5.50;71.75;94224.66;4953727;28;20055;-47
2021/01/30 08:37:18;;;;;;;5.18;1.20;;;;;;;5.49;70.98;94217.72;4946357;28;20059;-50
2021/01/30 08:40:12;;;;;;;7.80;1.48;;;;;;;5.51;70.77;94215.47;4956295;28;20062;-50
2021/01/30 08:43:01;;;;;;;5.78;1.25;;;;;;;5.52;70.94;94217.81;4941795;28;20055;-53
2021/01/30 08:45:31;;;;;;;9.35;1.80;;;;;;;5.57;70.31;94217.56;4949959;28;20081;-47
2021/01/30 08:48:23;;;;;;;9.65;1.52;;;;;;;5.71;70.10;94211.81;4952341;28;20051;-51
2021/01/30 08:50:51;;;;;;;6.55;1.23;;;;;;;5.72;69.36;94216.06;4952315;28;20051;-48
2021/01/30 08:53:28;;;;;;;7.93;1.73;;;;;;;5.62;69.65;94211.16;4952895;28;20151;-50
2021/01/30 08:55:59;;;;;;;7.32;1.70;;;;;;;5.62;70.75;94217.34;4967126;28;20063;-46
2021/01/30 08:58:32;;;;;;;6.15;2.10;;;;;;;5.99;68.81;94219.84;4946174;29;20496;-43
2021/01/30 09:01:21;;;;;;;7.50;2.00;;;;;;;5.89;68.67;94211.50;4955144;28;20089;-42
2021/01/30 09:03:59;;;;;;;7.38;2.70;;;;;;;5.85;69.16;94225.63;4952795;28;20535;-42
2021/01/30 09:06:38;;;;;;;7.38;1.73;;;;;;;6.30;67.99;94231.75;4953281;28;20085;-43
2021/01/30 09:09:12;;;;;;;8.88;3.00;;;;;;;6.19;67.81;94215.38;4969184;28;20183;-47
2021/01/30 09:11:46;;;;;;;8.77;1.90;;;;;;;6.14;68.62;94223.66;4953606;28;20063;-42
2021/01/30 09:14:18;;;;;;;5.57;1.70;;;;;;;6.08;68.56;94220.47;4942993;28;20082;-43
2021/01/30 09:16:56;;;;;;;5.75;1.80;;;;;;;5.98;68.35;94214.81;4950603;28;20125;-41
2021/01/30 09:19:32;;;;;;;7.03;2.03;;;;;;;6.10;68.63;94220.13;4952564;28;20786;-43
2021/01/30 09:22:40;;;;;;;5.63;1.77;;;;;;;6.13;68.32;94216.75;4949655;28;20113;-40
2021/01/30 09:25:36;;;;;;;5.72;1.50;;;;;;;6.06;68.23;94216.56;4952832;29;20133;-42
2021/01/30 09:28:02;;;;;;;4.75;1.45;;;;;;;6.14;68.03;94215.63;4952355;28;20051;-41
2021/01/30 09:30:53;;;;;;;7.65;1.75;;;;;;;6.08;68.04;94208.97;4960479;28;20101;-40
2021/01/30 09:33:29;;;;;;;5.18;1.30;;;;;;;6.16;68.53;94213.38;4953115;28;20122;-40
2021/01/30 09:36:14;;;;;;;6.90;1.30;;;;;;;6.23;67.58;94207.41;4951740;28;20051;-44
2021/01/30 09:38:45;;;;;;;5.13;1.48;;;;;;;6.13;68.56;94207.91;4949724;28;20067;-45
2021/01/30 09:41:33;;;;;;;7.03;2.17;;;;;;;6.22;67.66;94211.22;4952742;28;20070;-44
2021/01/30 09:44:08;;;;;;;9.45;1.70;;;;;;;6.68;67.16;94214.22;4952550;28;20083;-45
2021/01/30 09:46:42;;;;;;;5.03;1.73;;;;;;;6.30;67.55;94210.25;4962017;28;20043;-46
2021/01/30 09:49:22;;;;;;;6.15;1.67;;;;;;;6.21;66.85;94207.75;4951003;28;20063;-41
2021/01/30 09:51:53;;;;;;;5.35;1.52;;;;;;;6.81;66.09;94206.84;4956545;28;20507;-42
2021/01/30 09:54:23;;;;;;;7.63;1.80;;;;;;;6.33;66.29;94202.28;4955562;28;20059;-41
2021/01/30 09:56:57;;;;;;;6.55;1.30;;;;;;;6.63;65.88;94207.22;4953140;28;20047;-42
2021/01/30 09:59:28;;;;;;;6.43;1.20;;;;;;;6.86;64.94;94196.59;4961915;28;20130;-42
2021/01/30 10:02:06;;;;;;;4.90;1.20;;;;;;;7.14;64.84;94201.78;4949507;28;20051;-44
2021/01/30 10:04:33;;;;;;;6.18;1.42;;;;;;;7.35;64.26;94201.47;4969585;28;20062;-42
2021/01/30 10:07:08;;;;;;;5.97;1.67;;;;;;;7.28;63.47;94195.94;4962406;28;20059;-43
2021/01/30 10:09:47;;;;;;;6.10;1.10;;;;;;;6.92;64.36;94205.16;4949842;28;20161;-44
2021/01/30 10:12:20;;;;;;;8.43;1.95;;;;;;;7.01;64.24;94203.06;4952705;28;20047;-43
2021/01/30 10:14:58;;;;;;;7.72;1.27;;;;;;;6.86;64.53;94195.78;4951585;28;20110;-46
2021/01/30 10:17:38;;;;;;;5.45;1.88;;;;;;;7.33;64.86;94186.81;4965639;28;20051;-48
2021/01/30 10:20:23;;;;;;;5.88;1.30;;;;;;;7.28;63.43;94185.19;4947397;28;20523;-44
2021/01/30 10:22:50;;;;;;;7.03;2.00;;;;;;;7.22;62.71;94187.38;4951017;28;20055;-45
2021/01/30 10:25:18;;;;;;;5.75;1.70;;;;;;;7.30;62.38;94176.75;4952602;28;20134;-45
2021/01/30 10:27:45;;;;;;;6.88;1.50;;;;;;;6.99;62.98;94163.09;4952076;28;20479;-45
2021/01/30 10:30:15;;;;;;;10.15;2.08;;;;;;;7.20;62.72;94173.50;4949869;28;20127;-44
2021/01/30 10:32:52;;;;;;;8.95;1.52;;;;;;;7.58;62.26;94177.31;4953352;28;20055;-42
2021/01/30 10:35:33;;;;;;;7.32;1.20;;;;;;;7.25;61.98;94157.09;4956901;28;20055;-40
2021/01/30 10:38:11;;;;;;;4.75;1.30;;;;;;;7.36;61.57;94159.97;4933608;28;20402;-48
2021/01/30 10:40:42;;;;;;;4.93;1.17;;;;;;;7.23;61.21;94156.66;4934957;28;20195;-41
2021/01/30 10:43:31;;;;;;;4.90;1.73;;;;;;;7.31;60.18;94151.41;4947175;28;20069;-46
2021/01/30 10:46:01;;;;;;;6.15;1.20;;;;;;;7.44;60.65;94145.53;4944111;28;20413;-42
2021/01/30 10:48:34;;;;;;;6.40;1.20;;;;;;;7.30;60.10;94147.94;4953145;28;20449;-46
2021/01/30 10:51:08;;;;;;;4.03;1.05;;;;;;;7.53;59.86;94147.22;4937917;28;20115;-43
2021/01/30 10:53:37;;;;;;;6.50;1.15;;;;;;;7.42;59.77;94149.72;4952741;28;20416;-43
2021/01/30 10:56:26;;;;;;;7.30;1.17;;;;;;;7.45;58.88;94152.47;4949379;28;20051;-47
2021/01/30 10:58:55;;;;;;;4.90;1.00;;;;;;;7.67;57.87;94148.28;4967042;28;20055;-43
2021/01/30 11:01:25;;;;;;;8.23;1.40;;;;;;;7.59;58.37;94132.34;4957164;28;20110;-42
2021/01/30 11:04:04;;;;;;;7.95;1.30;;;;;;;7.90;58.55;94134.81;4956666;28;20059;-42
2021/01/30 11:06:36;;;;;;;4.07;1.00;;;;;;;7.62;58.15;94126.25;4957255;28;20055;-41
2021/01/30 11:09:16;;;;;;;5.78;1.17;;;;;;;7.59;58.19;94130.41;4955925;28;20057;-41
2021/01/30 11:11:45;;;;;;;3.70;1.10;;;;;;;7.61;58.61;94114.72;4939701;29;20048;-42
2021/01/30 11:14:32;;;;;;;6.28;1.42;;;;;;;7.94;57.85;94142.97;4958246;28;20461;-43
2021/01/30 11:17:00;;;;;;;6.68;1.10;;;;;;;8.03;57.88;94124.66;4939436;28;20443;-43
2021/01/30 11:19:42;;;;;;;5.65;1.20;;;;;;;8.10;57.70;94132.84;4950887;28;20078;-43
2021/01/30 11:22:21;;;;;;;4.50;1.35;;;;;;;8.50;56.52;94133.47;4953087;28;20082;-46
2021/01/30 11:25:10;;;;;;;4.72;1.33;;;;;;;8.57;56.51;94126.28;4956911;28;20121;-45
2021/01/30 11:27:45;;;;;;;6.95;1.65;;;;;;;8.25;56.20;94127.69;4959132;28;20086;-45
2021/01/30 11:30:15;;;;;;;11.35;1.50;;;;;;;8.04;57.53;94126.19;4955761;28;20055;-50
2021/01/30 11:33:02;;;;;;;6.53;1.30;;;;;;;7.63;58.36;94119.72;4956010;28;20078;-46
2021/01/30 11:35:35;;;;;;;5.95;1.52;;;;;;;7.96;57.67;94124.50;4957615;28;20106;-46
2021/01/30 11:38:23;;;;;;;5.97;1.75;;;;;;;7.78;58.32;94126.16;4971199;28;20071;-44
2021/01/30 11:40:55;;;;;;;9.93;1.35;;;;;;;7.49;59.26;94125.63;4952827;28;20047;-49
2021/01/30 11:43:22;;;;;;;6.57;1.40;;;;;;;7.58;59.54;94122.72;4955510;28;20559;-45
2021/01/30 11:45:49;;;;;;;5.68;1.40;;;;;;;7.81;60.04;94125.44;4955999;28;20115;-42
2021/01/30 11:48:18;;;;;;;6.05;1.23;;;;;;;8.02;59.49;94123.06;4942323;28;20409;-41
2021/01/30 11:50:46;;;;;;;7.70;1.33;;;;;;;8.28;59.04;94121.56;4960754;28;20039;-46
2021/01/30 11:53:17;;;;;;;5.25;1.10;;;;;;;7.71;59.18;94106.03;4956863;28;20137;-41
2021/01/30 11:55:45;;;;;;;6.05;1.30;;;;;;;7.76;58.92;94109.56;4955892;28;20051;-44
2021/01/30 11:58:12;;;;;;;5.57;1.40;;;;;;;7.59;59.84;94116.97;4953742;28;20110;-46
2021/01/30 12:00:39;;;;;;;7.63;1.63;;;;;;;7.83;59.11;94106.97;4954988;28;20043;-50
2021/01/30 12:03:10;;;;;;;5.93;1.23;;;;;;;7.80;58.41;94102.31;4954750;28;20055;-53
2021/01/30 12:05:36;;;;;;;5.15;1.40;;;;;;;7.46;59.43;94091.34;4950027;28;20166;-50
2021/01/30 12:08:03;;;;;;;7.13;1.50;;;;;;;7.70;58.96;94095.63;4956971;28;20098;-49
2021/01/30 12:10:30;;;;;;;6.97;1.40;;;;;;;7.79;57.85;94090.00;4952797;28;20047;-53
2021/01/30 12:12:57;;;;;;;4.50;1.17;;;;;;;7.85;58.42;94088.56;4954981;28;20059;-54
2021/01/30 12:15:24;;;;;;;6.82;1.50;;;;;;;7.80;58.61;94080.78;4953007;28;20067;-54
2021/01/30 12:17:51;;;;;;;10.00;1.77;;;;;;;7.92;59.07;94075.22;4948747;28;20560;-53